sensor_id;sensor_type;location;lat;lon;timestamp;P1;durP1;ratioP1;P2;durP2;ratioP2
22429;SDS011;11382;48.086;11.632;2022-09-13T00:00:49;4.32;;;3.63;;
22429;SDS011;11382;48.086;11.632;2022-09-13T00:03:18;6.68;;;3.47;;
22429;SDS011;11382;48.086;11.632;2022-09-13T00:05:47;5.80;;;3.38;;
22429;SDS011;11382;48.086;11.632;2022-09-13T00:08:15;5.90;;;3.88;;
22429;SDS011;11382;48.086;11.632;2022-09-13T00:10:44;5.00;;;3.70;;
22429;SDS011;11382;48.086;11.632;2022-09-13T00:13:13;5.05;;;3.53;;
22429;SDS011;11382;48.086;11.632;2022-09-13T00:15:42;5.07;;;3.47;;
22429;SDS011;11382;48.086;11.632;2022-09-13T00:18:12;4.25;;;3.58;;
22429;SDS011;11382;48.086;11.632;2022-09-13T00:20:40;8.30;;;4.22;;
22429;SDS011;11382;48.086;11.632;2022-09-13T00:23:08;5.60;;;3.15;;
22429;SDS011;11382;48.086;11.632;2022-09-13T00:25:36;4.55;;;3.65;;
22429;SDS011;11382;48.086;11.632;2022-09-13T00:28:05;5.78;;;3.65;;
22429;SDS011;11382;48.086;11.632;2022-09-13T00:30:33;6.68;;;3.78;;
22429;SDS011;11382;48.086;11.632;2022-09-13T00:33:01;4.18;;;3.28;;
22429;SDS011;11382;48.086;11.632;2022-09-13T00:35:31;4.72;;;3.80;;
22429;SDS011;11382;48.086;11.632;2022-09-13T00:38:00;5.13;;;3.28;;
22429;SDS011;11382;48.086;11.632;2022-09-13T00:40:28;4.28;;;3.28;;
22429;SDS011;11382;48.086;11.632;2022-09-13T00:42:56;4.45;;;3.13;;
22429;SDS011;11382;48.086;11.632;2022-09-13T00:45:24;4.78;;;3.13;;
22429;SDS011;11382;48.086;11.632;2022-09-13T00:47:53;8.32;;;3.25;;
22429;SDS011;11382;48.086;11.632;2022-09-13T00:50:24;5.72;;;3.40;;
22429;SDS011;11382;48.086;11.632;2022-09-13T00:52:59;3.88;;;3.38;;
22429;SDS011;11382;48.086;11.632;2022-09-13T00:55:31;3.70;;;3.17;;
22429;SDS011;11382;48.086;11.632;2022-09-13T00:58:04;3.85;;;3.33;;
22429;SDS011;11382;48.086;11.632;2022-09-13T01:00:35;4.10;;;2.90;;
22429;SDS011;11382;48.086;11.632;2022-09-13T01:03:05;3.50;;;3.20;;
22429;SDS011;11382;48.086;11.632;2022-09-13T01:05:37;4.55;;;3.00;;
22429;SDS011;11382;48.086;11.632;2022-09-13T01:08:10;5.03;;;3.20;;
22429;SDS011;11382;48.086;11.632;2022-09-13T01:10:41;3.25;;;2.72;;
22429;SDS011;11382;48.086;11.632;2022-09-13T01:13:11;3.13;;;2.83;;
22429;SDS011;11382;48.086;11.632;2022-09-13T01:15:44;3.42;;;2.58;;
22429;SDS011;11382;48.086;11.632;2022-09-13T01:18:12;4.88;;;2.90;;
22429;SDS011;11382;48.086;11.632;2022-09-13T01:20:44;2.95;;;2.63;;
22429;SDS011;11382;48.086;11.632;2022-09-13T01:23:48;3.20;;;2.80;;
22429;SDS011;11382;48.086;11.632;2022-09-13T01:26:47;6.70;;;3.13;;
22429;SDS011;11382;48.086;11.632;2022-09-13T01:29:45;5.65;;;3.05;;
22429;SDS011;11382;48.086;11.632;2022-09-13T01:32:32;3.08;;;2.70;;
22429;SDS011;11382;48.086;11.632;2022-09-13T01:35:21;5.47;;;3.03;;
22429;SDS011;11382;48.086;11.632;2022-09-13T01:37:59;5.18;;;2.70;;
22429;SDS011;11382;48.086;11.632;2022-09-13T01:40:38;3.88;;;2.72;;
22429;SDS011;11382;48.086;11.632;2022-09-13T01:43:18;3.53;;;2.70;;
22429;SDS011;11382;48.086;11.632;2022-09-13T01:46:01;3.47;;;2.55;;
22429;SDS011;11382;48.086;11.632;2022-09-13T01:48:34;3.63;;;2.85;;
22429;SDS011;11382;48.086;11.632;2022-09-13T01:51:16;5.22;;;2.65;;
22429;SDS011;11382;48.086;11.632;2022-09-13T01:53:51;3.40;;;2.72;;
22429;SDS011;11382;48.086;11.632;2022-09-13T01:56:25;3.08;;;2.72;;
22429;SDS011;11382;48.086;11.632;2022-09-13T01:59:00;3.28;;;2.63;;
22429;SDS011;11382;48.086;11.632;2022-09-13T02:04:06;2.97;;;2.60;;
22429;SDS011;11382;48.086;11.632;2022-09-13T02:06:39;4.03;;;2.58;;
22429;SDS011;11382;48.086;11.632;2022-09-13T02:11:47;4.32;;;2.67;;
22429;SDS011;11382;48.086;11.632;2022-09-13T02:14:20;4.80;;;2.75;;
22429;SDS011;11382;48.086;11.632;2022-09-13T02:16:53;3.70;;;2.30;;
22429;SDS011;11382;48.086;11.632;2022-09-13T02:19:26;2.70;;;2.33;;
22429;SDS011;11382;48.086;11.632;2022-09-13T02:22:00;5.30;;;2.60;;
22429;SDS011;11382;48.086;11.632;2022-09-13T02:24:31;3.28;;;2.35;;
22429;SDS011;11382;48.086;11.632;2022-09-13T02:27:02;4.10;;;2.47;;
22429;SDS011;11382;48.086;11.632;2022-09-13T02:29:34;2.97;;;2.50;;
22429;SDS011;11382;48.086;11.632;2022-09-13T02:32:06;4.25;;;2.65;;
22429;SDS011;11382;48.086;11.632;2022-09-13T02:34:38;3.35;;;2.80;;
22429;SDS011;11382;48.086;11.632;2022-09-13T02:37:10;4.40;;;2.80;;
22429;SDS011;11382;48.086;11.632;2022-09-13T02:39:40;2.38;;;2.17;;
22429;SDS011;11382;48.086;11.632;2022-09-13T02:42:16;2.22;;;2.05;;
22429;SDS011;11382;48.086;11.632;2022-09-13T02:44:45;4.05;;;2.70;;
22429;SDS011;11382;48.086;11.632;2022-09-13T02:47:23;4.55;;;2.50;;
22429;SDS011;11382;48.086;11.632;2022-09-13T02:50:06;2.28;;;2.08;;
22429;SDS011;11382;48.086;11.632;2022-09-13T02:52:46;4.07;;;2.35;;
22429;SDS011;11382;48.086;11.632;2022-09-13T02:55:18;1.83;;;1.52;;
22429;SDS011;11382;48.086;11.632;2022-09-13T02:57:54;4.10;;;2.40;;
22429;SDS011;11382;48.086;11.632;2022-09-13T03:00:28;3.00;;;2.50;;
22429;SDS011;11382;48.086;11.632;2022-09-13T03:02:58;2.60;;;2.08;;
22429;SDS011;11382;48.086;11.632;2022-09-13T03:05:31;3.70;;;2.47;;
22429;SDS011;11382;48.086;11.632;2022-09-13T03:07:59;2.75;;;2.00;;
22429;SDS011;11382;48.086;11.632;2022-09-13T03:10:29;2.90;;;2.38;;
22429;SDS011;11382;48.086;11.632;2022-09-13T03:13:19;3.17;;;1.98;;
22429;SDS011;11382;48.086;11.632;2022-09-13T03:16:03;2.47;;;1.70;;
22429;SDS011;11382;48.086;11.632;2022-09-13T03:18:44;4.55;;;2.20;;
22429;SDS011;11382;48.086;11.632;2022-09-13T03:21:24;2.78;;;2.00;;
22429;SDS011;11382;48.086;11.632;2022-09-13T03:24:07;2.05;;;1.90;;
22429;SDS011;11382;48.086;11.632;2022-09-13T03:26:44;4.28;;;2.10;;
22429;SDS011;11382;48.086;11.632;2022-09-13T03:29:28;2.90;;;1.90;;
22429;SDS011;11382;48.086;11.632;2022-09-13T03:32:04;2.65;;;1.98;;
22429;SDS011;11382;48.086;11.632;2022-09-13T03:34:46;3.33;;;2.58;;
22429;SDS011;11382;48.086;11.632;2022-09-13T03:37:21;4.82;;;2.05;;
22429;SDS011;11382;48.086;11.632;2022-09-13T03:39:55;5.13;;;2.10;;
22429;SDS011;11382;48.086;11.632;2022-09-13T03:42:27;2.58;;;2.25;;
22429;SDS011;11382;48.086;11.632;2022-09-13T03:45:00;3.85;;;2.05;;
22429;SDS011;11382;48.086;11.632;2022-09-13T03:47:31;4.47;;;2.40;;
22429;SDS011;11382;48.086;11.632;2022-09-13T03:50:04;4.82;;;2.20;;
22429;SDS011;11382;48.086;11.632;2022-09-13T03:52:34;2.50;;;2.03;;
22429;SDS011;11382;48.086;11.632;2022-09-13T03:55:03;3.60;;;2.45;;
22429;SDS011;11382;48.086;11.632;2022-09-13T03:57:32;3.65;;;2.20;;
22429;SDS011;11382;48.086;11.632;2022-09-13T04:00:00;3.70;;;2.17;;
22429;SDS011;11382;48.086;11.632;2022-09-13T04:02:36;2.15;;;1.85;;
22429;SDS011;11382;48.086;11.632;2022-09-13T04:05:08;2.50;;;2.30;;
22429;SDS011;11382;48.086;11.632;2022-09-13T04:07:36;3.47;;;2.25;;
22429;SDS011;11382;48.086;11.632;2022-09-13T04:10:04;2.38;;;2.10;;
22429;SDS011;11382;48.086;11.632;2022-09-13T04:12:38;2.97;;;1.98;;
22429;SDS011;11382;48.086;11.632;2022-09-13T04:15:07;4.25;;;2.22;;
22429;SDS011;11382;48.086;11.632;2022-09-13T04:17:36;3.40;;;2.00;;
22429;SDS011;11382;48.086;11.632;2022-09-13T04:20:05;6.05;;;2.20;;
22429;SDS011;11382;48.086;11.632;2022-09-13T04:22:36;4.15;;;2.03;;
22429;SDS011;11382;48.086;11.632;2022-09-13T04:25:04;3.13;;;2.13;;
22429;SDS011;11382;48.086;11.632;2022-09-13T04:27:33;2.80;;;2.10;;
22429;SDS011;11382;48.086;11.632;2022-09-13T04:30:02;3.50;;;2.20;;
22429;SDS011;11382;48.086;11.632;2022-09-13T04:32:30;3.53;;;1.90;;
22429;SDS011;11382;48.086;11.632;2022-09-13T04:34:58;3.08;;;2.33;;
22429;SDS011;11382;48.086;11.632;2022-09-13T04:37:28;2.80;;;2.50;;
22429;SDS011;11382;48.086;11.632;2022-09-13T04:39:56;2.88;;;2.15;;
22429;SDS011;11382;48.086;11.632;2022-09-13T04:42:24;3.92;;;2.10;;
22429;SDS011;11382;48.086;11.632;2022-09-13T04:44:52;4.35;;;2.47;;
22429;SDS011;11382;48.086;11.632;2022-09-13T04:47:20;2.28;;;2.08;;
22429;SDS011;11382;48.086;11.632;2022-09-13T04:49:48;4.05;;;2.35;;
22429;SDS011;11382;48.086;11.632;2022-09-13T04:52:16;2.85;;;2.25;;
22429;SDS011;11382;48.086;11.632;2022-09-13T04:54:46;2.28;;;1.98;;
22429;SDS011;11382;48.086;11.632;2022-09-13T04:57:14;2.00;;;1.80;;
22429;SDS011;11382;48.086;11.632;2022-09-13T04:59:42;4.07;;;1.85;;
22429;SDS011;11382;48.086;11.632;2022-09-13T05:02:10;2.15;;;1.90;;
22429;SDS011;11382;48.086;11.632;2022-09-13T05:04:38;3.20;;;2.17;;
22429;SDS011;11382;48.086;11.632;2022-09-13T05:07:08;2.33;;;1.70;;
22429;SDS011;11382;48.086;11.632;2022-09-13T05:09:36;4.15;;;1.77;;
22429;SDS011;11382;48.086;11.632;2022-09-13T05:12:06;6.30;;;1.85;;
22429;SDS011;11382;48.086;11.632;2022-09-13T05:14:34;2.00;;;1.80;;
22429;SDS011;11382;48.086;11.632;2022-09-13T05:17:02;3.30;;;2.10;;
22429;SDS011;11382;48.086;11.632;2022-09-13T05:19:30;2.90;;;1.75;;
22429;SDS011;11382;48.086;11.632;2022-09-13T05:21:58;1.70;;;1.60;;
22429;SDS011;11382;48.086;11.632;2022-09-13T05:24:26;2.03;;;1.80;;
22429;SDS011;11382;48.086;11.632;2022-09-13T05:26:54;2.60;;;1.50;;
22429;SDS011;11382;48.086;11.632;2022-09-13T05:29:23;2.38;;;2.00;;
22429;SDS011;11382;48.086;11.632;2022-09-13T05:31:51;2.90;;;1.85;;
22429;SDS011;11382;48.086;11.632;2022-09-13T05:34:19;2.63;;;1.70;;
22429;SDS011;11382;48.086;11.632;2022-09-13T05:36:47;2.65;;;1.65;;
22429;SDS011;11382;48.086;11.632;2022-09-13T05:39:19;4.70;;;1.80;;
22429;SDS011;11382;48.086;11.632;2022-09-13T05:42:08;2.38;;;1.65;;
22429;SDS011;11382;48.086;11.632;2022-09-13T05:44:37;4.10;;;1.98;;
22429;SDS011;11382;48.086;11.632;2022-09-13T05:47:05;3.90;;;2.13;;
22429;SDS011;11382;48.086;11.632;2022-09-13T05:49:33;5.13;;;2.00;;
22429;SDS011;11382;48.086;11.632;2022-09-13T05:52:21;1.75;;;1.60;;
22429;SDS011;11382;48.086;11.632;2022-09-13T05:54:49;2.72;;;1.80;;
22429;SDS011;11382;48.086;11.632;2022-09-13T05:57:17;5.82;;;1.50;;
22429;SDS011;11382;48.086;11.632;2022-09-13T05:59:48;2.17;;;1.70;;
22429;SDS011;11382;48.086;11.632;2022-09-13T06:02:16;3.03;;;1.60;;
22429;SDS011;11382;48.086;11.632;2022-09-13T06:04:44;5.72;;;1.88;;
22429;SDS011;11382;48.086;11.632;2022-09-13T06:07:15;1.80;;;1.40;;
22429;SDS011;11382;48.086;11.632;2022-09-13T06:09:43;4.72;;;1.73;;
22429;SDS011;11382;48.086;11.632;2022-09-13T06:12:11;4.07;;;1.75;;
22429;SDS011;11382;48.086;11.632;2022-09-13T06:14:38;3.22;;;1.60;;
22429;SDS011;11382;48.086;11.632;2022-09-13T06:17:08;5.50;;;1.63;;
22429;SDS011;11382;48.086;11.632;2022-09-13T06:19:36;4.05;;;1.70;;
22429;SDS011;11382;48.086;11.632;2022-09-13T06:22:06;4.45;;;2.13;;
22429;SDS011;11382;48.086;11.632;2022-09-13T06:24:34;1.88;;;1.60;;
22429;SDS011;11382;48.086;11.632;2022-09-13T06:27:03;3.00;;;1.50;;
22429;SDS011;11382;48.086;11.632;2022-09-13T06:29:31;3.72;;;1.35;;
22429;SDS011;11382;48.086;11.632;2022-09-13T06:31:59;5.15;;;1.90;;
22429;SDS011;11382;48.086;11.632;2022-09-13T06:34:28;2.38;;;1.42;;
22429;SDS011;11382;48.086;11.632;2022-09-13T06:36:58;2.03;;;1.45;;
22429;SDS011;11382;48.086;11.632;2022-09-13T06:39:26;3.60;;;1.60;;
22429;SDS011;11382;48.086;11.632;2022-09-13T06:41:54;1.98;;;1.55;;
22429;SDS011;11382;48.086;11.632;2022-09-13T06:44:37;3.05;;;1.52;;
22429;SDS011;11382;48.086;11.632;2022-09-13T06:47:05;3.20;;;1.48;;
22429;SDS011;11382;48.086;11.632;2022-09-13T06:49:34;3.50;;;1.40;;
22429;SDS011;11382;48.086;11.632;2022-09-13T06:52:05;2.90;;;1.13;;
22429;SDS011;11382;48.086;11.632;2022-09-13T06:54:33;2.65;;;1.40;;
22429;SDS011;11382;48.086;11.632;2022-09-13T06:57:00;3.55;;;1.50;;
22429;SDS011;11382;48.086;11.632;2022-09-13T06:59:29;3.90;;;1.42;;
22429;SDS011;11382;48.086;11.632;2022-09-13T07:01:57;2.50;;;1.50;;
22429;SDS011;11382;48.086;11.632;2022-09-13T07:04:25;2.15;;;1.63;;
22429;SDS011;11382;48.086;11.632;2022-09-13T07:06:58;1.75;;;1.30;;
22429;SDS011;11382;48.086;11.632;2022-09-13T07:09:28;2.97;;;1.50;;
22429;SDS011;11382;48.086;11.632;2022-09-13T07:11:55;3.45;;;1.55;;
22429;SDS011;11382;48.086;11.632;2022-09-13T07:14:26;1.85;;;1.52;;
22429;SDS011;11382;48.086;11.632;2022-09-13T07:16:55;2.67;;;1.50;;
22429;SDS011;11382;48.086;11.632;2022-09-13T07:19:23;3.60;;;1.70;;
22429;SDS011;11382;48.086;11.632;2022-09-13T07:21:53;3.30;;;2.20;;
22429;SDS011;11382;48.086;11.632;2022-09-13T07:24:23;4.80;;;1.63;;
22429;SDS011;11382;48.086;11.632;2022-09-13T07:26:52;3.78;;;1.58;;
22429;SDS011;11382;48.086;11.632;2022-09-13T07:29:20;3.97;;;2.10;;
22429;SDS011;11382;48.086;11.632;2022-09-13T07:31:50;5.97;;;2.00;;
22429;SDS011;11382;48.086;11.632;2022-09-13T07:34:20;4.18;;;2.20;;
22429;SDS011;11382;48.086;11.632;2022-09-13T07:36:51;3.72;;;2.00;;
22429;SDS011;11382;48.086;11.632;2022-09-13T07:39:20;2.75;;;2.38;;
22429;SDS011;11382;48.086;11.632;2022-09-13T07:41:50;2.85;;;2.10;;
22429;SDS011;11382;48.086;11.632;2022-09-13T07:44:20;2.58;;;1.88;;
22429;SDS011;11382;48.086;11.632;2022-09-13T07:46:48;1.75;;;1.50;;
22429;SDS011;11382;48.086;11.632;2022-09-13T07:49:17;3.17;;;1.58;;
22429;SDS011;11382;48.086;11.632;2022-09-13T07:51:45;1.63;;;1.52;;
22429;SDS011;11382;48.086;11.632;2022-09-13T07:54:16;2.20;;;1.23;;
22429;SDS011;11382;48.086;11.632;2022-09-13T07:56:45;1.25;;;1.15;;
22429;SDS011;11382;48.086;11.632;2022-09-13T07:59:16;2.67;;;1.45;;
22429;SDS011;11382;48.086;11.632;2022-09-13T08:01:45;3.40;;;1.60;;
22429;SDS011;11382;48.086;11.632;2022-09-13T08:04:15;2.10;;;1.77;;
22429;SDS011;11382;48.086;11.632;2022-09-13T08:06:44;2.92;;;1.30;;
22429;SDS011;11382;48.086;11.632;2022-09-13T08:09:13;1.65;;;1.33;;
22429;SDS011;11382;48.086;11.632;2022-09-13T08:11:42;2.60;;;1.65;;
22429;SDS011;11382;48.086;11.632;2022-09-13T08:14:12;1.52;;;1.40;;
22429;SDS011;11382;48.086;11.632;2022-09-13T08:16:43;2.30;;;2.10;;
22429;SDS011;11382;48.086;11.632;2022-09-13T08:19:12;1.80;;;1.70;;
22429;SDS011;11382;48.086;11.632;2022-09-13T08:21:41;1.52;;;1.42;;
22429;SDS011;11382;48.086;11.632;2022-09-13T08:24:12;1.38;;;1.20;;
22429;SDS011;11382;48.086;11.632;2022-09-13T08:26:41;1.73;;;1.10;;
22429;SDS011;11382;48.086;11.632;2022-09-13T08:29:10;1.20;;;0.88;;
22429;SDS011;11382;48.086;11.632;2022-09-13T08:31:38;1.25;;;0.90;;
22429;SDS011;11382;48.086;11.632;2022-09-13T08:34:09;1.08;;;0.70;;
22429;SDS011;11382;48.086;11.632;2022-09-13T08:36:39;1.83;;;0.82;;
22429;SDS011;11382;48.086;11.632;2022-09-13T08:39:08;0.93;;;0.63;;
22429;SDS011;11382;48.086;11.632;2022-09-13T08:41:48;0.73;;;0.73;;
22429;SDS011;11382;48.086;11.632;2022-09-13T08:44:27;3.30;;;0.90;;
22429;SDS011;11382;48.086;11.632;2022-09-13T08:46:58;1.65;;;0.90;;
22429;SDS011;11382;48.086;11.632;2022-09-13T08:49:42;2.88;;;0.95;;
22429;SDS011;11382;48.086;11.632;2022-09-13T08:52:15;1.50;;;1.10;;
22429;SDS011;11382;48.086;11.632;2022-09-13T08:54:54;2.30;;;1.17;;
22429;SDS011;11382;48.086;11.632;2022-09-13T08:57:25;1.55;;;1.27;;
22429;SDS011;11382;48.086;11.632;2022-09-13T09:00:00;2.47;;;1.17;;
22429;SDS011;11382;48.086;11.632;2022-09-13T09:02:40;1.67;;;1.10;;
22429;SDS011;11382;48.086;11.632;2022-09-13T09:05:21;1.63;;;1.00;;
22429;SDS011;11382;48.086;11.632;2022-09-13T09:07:51;1.40;;;1.10;;
22429;SDS011;11382;48.086;11.632;2022-09-13T09:10:25;1.23;;;1.20;;
22429;SDS011;11382;48.086;11.632;2022-09-13T09:12:58;1.55;;;0.90;;
22429;SDS011;11382;48.086;11.632;2022-09-13T09:15:31;1.65;;;1.10;;
22429;SDS011;11382;48.086;11.632;2022-09-13T09:18:02;1.23;;;1.13;;
22429;SDS011;11382;48.086;11.632;2022-09-13T09:20:36;4.38;;;1.00;;
22429;SDS011;11382;48.086;11.632;2022-09-13T09:23:11;2.58;;;1.13;;
22429;SDS011;11382;48.086;11.632;2022-09-13T09:25:47;0.93;;;0.93;;
22429;SDS011;11382;48.086;11.632;2022-09-13T09:28:17;2.13;;;1.08;;
22429;SDS011;11382;48.086;11.632;2022-09-13T09:30:48;1.20;;;1.10;;
22429;SDS011;11382;48.086;11.632;2022-09-13T09:33:26;3.95;;;1.55;;
22429;SDS011;11382;48.086;11.632;2022-09-13T09:36:09;1.73;;;1.43;;
22429;SDS011;11382;48.086;11.632;2022-09-13T09:38:41;2.38;;;1.50;;
22429;SDS011;11382;48.086;11.632;2022-09-13T09:41:11;2.90;;;1.40;;
22429;SDS011;11382;48.086;11.632;2022-09-13T09:43:45;2.58;;;1.33;;
22429;SDS011;11382;48.086;11.632;2022-09-13T09:46:20;1.30;;;1.20;;
22429;SDS011;11382;48.086;11.632;2022-09-13T09:48:53;2.25;;;1.30;;
22429;SDS011;11382;48.086;11.632;2022-09-13T09:51:25;6.40;;;1.42;;
22429;SDS011;11382;48.086;11.632;2022-09-13T09:53:57;2.78;;;1.50;;
22429;SDS011;11382;48.086;11.632;2022-09-13T09:56:27;1.97;;;1.30;;
22429;SDS011;11382;48.086;11.632;2022-09-13T09:58:58;3.33;;;1.27;;
22429;SDS011;11382;48.086;11.632;2022-09-13T10:01:28;2.83;;;1.33;;
22429;SDS011;11382;48.086;11.632;2022-09-13T10:04:01;2.10;;;1.40;;
22429;SDS011;11382;48.086;11.632;2022-09-13T10:06:36;2.92;;;1.27;;
22429;SDS011;11382;48.086;11.632;2022-09-13T10:09:06;1.80;;;1.20;;
22429;SDS011;11382;48.086;11.632;2022-09-13T10:11:44;1.40;;;1.27;;
22429;SDS011;11382;48.086;11.632;2022-09-13T10:14:28;1.42;;;1.15;;
22429;SDS011;11382;48.086;11.632;2022-09-13T10:17:02;1.40;;;1.30;;
22429;SDS011;11382;48.086;11.632;2022-09-13T10:19:31;2.70;;;1.42;;
22429;SDS011;11382;48.086;11.632;2022-09-13T10:22:02;1.23;;;1.15;;
22429;SDS011;11382;48.086;11.632;2022-09-13T10:24:32;1.42;;;1.33;;
22429;SDS011;11382;48.086;11.632;2022-09-13T10:26:59;1.10;;;1.10;;
22429;SDS011;11382;48.086;11.632;2022-09-13T10:29:29;1.23;;;1.13;;
22429;SDS011;11382;48.086;11.632;2022-09-13T10:31:58;1.90;;;1.27;;
22429;SDS011;11382;48.086;11.632;2022-09-13T10:34:34;1.90;;;1.40;;
22429;SDS011;11382;48.086;11.632;2022-09-13T10:37:04;1.25;;;1.17;;
22429;SDS011;11382;48.086;11.632;2022-09-13T10:39:47;1.35;;;1.25;;
22429;SDS011;11382;48.086;11.632;2022-09-13T10:42:20;1.50;;;1.25;;
22429;SDS011;11382;48.086;11.632;2022-09-13T10:44:52;1.83;;;1.30;;
22429;SDS011;11382;48.086;11.632;2022-09-13T10:47:22;1.38;;;1.27;;
22429;SDS011;11382;48.086;11.632;2022-09-13T10:49:54;2.45;;;1.30;;
22429;SDS011;11382;48.086;11.632;2022-09-13T10:52:30;5.47;;;1.65;;
22429;SDS011;11382;48.086;11.632;2022-09-13T10:57:50;1.40;;;1.30;;
22429;SDS011;11382;48.086;11.632;2022-09-13T11:00:20;4.65;;;1.60;;
22429;SDS011;11382;48.086;11.632;2022-09-13T11:02:59;1.23;;;1.13;;
22429;SDS011;11382;48.086;11.632;2022-09-13T11:05:39;1.83;;;1.20;;
22429;SDS011;11382;48.086;11.632;2022-09-13T11:08:22;1.48;;;1.30;;
22429;SDS011;11382;48.086;11.632;2022-09-13T11:11:02;1.52;;;1.20;;
22429;SDS011;11382;48.086;11.632;2022-09-13T11:13:48;1.63;;;1.40;;
22429;SDS011;11382;48.086;11.632;2022-09-13T11:16:26;1.55;;;1.45;;
22429;SDS011;11382;48.086;11.632;2022-09-13T11:19:06;1.73;;;1.48;;
22429;SDS011;11382;48.086;11.632;2022-09-13T11:21:46;6.22;;;1.50;;
22429;SDS011;11382;48.086;11.632;2022-09-13T11:24:25;2.60;;;0.90;;
22429;SDS011;11382;48.086;11.632;2022-09-13T11:27:11;1.73;;;0.80;;
22429;SDS011;11382;48.086;11.632;2022-09-13T11:29:49;2.35;;;0.73;;
22429;SDS011;11382;48.086;11.632;2022-09-13T11:32:33;0.75;;;0.73;;
22429;SDS011;11382;48.086;11.632;2022-09-13T11:35:26;2.08;;;0.80;;
22429;SDS011;11382;48.086;11.632;2022-09-13T11:38:05;0.60;;;0.60;;
22429;SDS011;11382;48.086;11.632;2022-09-13T11:40:48;1.15;;;0.80;;
22429;SDS011;11382;48.086;11.632;2022-09-13T11:43:30;1.75;;;1.00;;
22429;SDS011;11382;48.086;11.632;2022-09-13T11:46:14;3.40;;;0.95;;
22429;SDS011;11382;48.086;11.632;2022-09-13T11:48:54;1.88;;;0.73;;
22429;SDS011;11382;48.086;11.632;2022-09-13T11:51:36;0.80;;;0.75;;
22429;SDS011;11382;48.086;11.632;2022-09-13T11:54:30;2.17;;;0.70;;
22429;SDS011;11382;48.086;11.632;2022-09-13T11:57:10;2.22;;;0.82;;
22429;SDS011;11382;48.086;11.632;2022-09-13T11:59:43;2.05;;;1.10;;
22429;SDS011;11382;48.086;11.632;2022-09-13T12:02:17;2.20;;;1.00;;
22429;SDS011;11382;48.086;11.632;2022-09-13T12:04:55;3.67;;;2.05;;
22429;SDS011;11382;48.086;11.632;2022-09-13T12:07:46;2.78;;;1.35;;
22429;SDS011;11382;48.086;11.632;2022-09-13T12:10:21;2.35;;;0.80;;
22429;SDS011;11382;48.086;11.632;2022-09-13T12:12:53;1.53;;;0.70;;
22429;SDS011;11382;48.086;11.632;2022-09-13T12:15:26;0.80;;;0.80;;
22429;SDS011;11382;48.086;11.632;2022-09-13T12:18:01;2.75;;;1.00;;
22429;SDS011;11382;48.086;11.632;2022-09-13T12:20:33;2.15;;;0.95;;
22429;SDS011;11382;48.086;11.632;2022-09-13T12:23:04;1.65;;;0.90;;
22429;SDS011;11382;48.086;11.632;2022-09-13T12:25:40;2.53;;;0.80;;
22429;SDS011;11382;48.086;11.632;2022-09-13T12:28:17;2.65;;;0.80;;
22429;SDS011;11382;48.086;11.632;2022-09-13T12:30:50;0.60;;;0.60;;
22429;SDS011;11382;48.086;11.632;2022-09-13T12:33:21;0.45;;;0.45;;
22429;SDS011;11382;48.086;11.632;2022-09-13T12:35:52;1.85;;;0.80;;
22429;SDS011;11382;48.086;11.632;2022-09-13T12:39:03;2.05;;;0.68;;
22429;SDS011;11382;48.086;11.632;2022-09-13T12:42:04;3.08;;;0.80;;
22429;SDS011;11382;48.086;11.632;2022-09-13T12:45:00;0.85;;;0.60;;
22429;SDS011;11382;48.086;11.632;2022-09-13T12:47:52;1.05;;;0.82;;
22429;SDS011;11382;48.086;11.632;2022-09-13T12:50:57;4.82;;;1.00;;
22429;SDS011;11382;48.086;11.632;2022-09-13T12:53:59;1.63;;;0.80;;
22429;SDS011;11382;48.086;11.632;2022-09-13T12:56:43;0.77;;;0.68;;
22429;SDS011;11382;48.086;11.632;2022-09-13T12:59:29;1.33;;;0.70;;
22429;SDS011;11382;48.086;11.632;2022-09-13T13:02:22;1.85;;;0.80;;
22429;SDS011;11382;48.086;11.632;2022-09-13T13:04:58;1.65;;;0.60;;
22429;SDS011;11382;48.086;11.632;2022-09-13T13:07:30;1.88;;;0.77;;
22429;SDS011;11382;48.086;11.632;2022-09-13T13:10:02;1.30;;;0.88;;
22429;SDS011;11382;48.086;11.632;2022-09-13T13:12:49;1.70;;;0.90;;
22429;SDS011;11382;48.086;11.632;2022-09-13T13:18:20;1.42;;;0.80;;
22429;SDS011;11382;48.086;11.632;2022-09-13T13:21:05;1.37;;;0.90;;
22429;SDS011;11382;48.086;11.632;2022-09-13T13:26:47;2.50;;;0.70;;
22429;SDS011;11382;48.086;11.632;2022-09-13T13:29:16;4.32;;;0.70;;
22429;SDS011;11382;48.086;11.632;2022-09-13T13:32:05;0.80;;;0.50;;
22429;SDS011;11382;48.086;11.632;2022-09-13T13:34:39;0.90;;;0.70;;
22429;SDS011;11382;48.086;11.632;2022-09-13T13:37:32;1.77;;;0.63;;
22429;SDS011;11382;48.086;11.632;2022-09-13T13:45:55;1.10;;;0.70;;
22429;SDS011;11382;48.086;11.632;2022-09-13T13:51:15;5.35;;;0.73;;
22429;SDS011;11382;48.086;11.632;2022-09-13T13:56:25;1.85;;;0.65;;
22429;SDS011;11382;48.086;11.632;2022-09-13T13:59:03;1.38;;;0.90;;
22429;SDS011;11382;48.086;11.632;2022-09-13T14:01:38;1.58;;;0.77;;
22429;SDS011;11382;48.086;11.632;2022-09-13T14:04:35;1.88;;;0.73;;
22429;SDS011;11382;48.086;11.632;2022-09-13T14:07:49;2.03;;;0.63;;
22429;SDS011;11382;48.086;11.632;2022-09-13T14:10:32;2.35;;;0.70;;
22429;SDS011;11382;48.086;11.632;2022-09-13T14:13:16;1.40;;;0.75;;
22429;SDS011;11382;48.086;11.632;2022-09-13T14:15:53;0.70;;;0.70;;
22429;SDS011;11382;48.086;11.632;2022-09-13T14:21:32;2.00;;;0.80;;
22429;SDS011;11382;48.086;11.632;2022-09-13T14:24:10;1.80;;;0.75;;
22429;SDS011;11382;48.086;11.632;2022-09-13T14:26:43;2.58;;;0.80;;
22429;SDS011;11382;48.086;11.632;2022-09-13T14:29:14;2.33;;;0.70;;
22429;SDS011;11382;48.086;11.632;2022-09-13T14:31:44;1.42;;;0.68;;
22429;SDS011;11382;48.086;11.632;2022-09-13T14:34:20;0.93;;;0.60;;
22429;SDS011;11382;48.086;11.632;2022-09-13T14:36:50;1.90;;;0.80;;
22429;SDS011;11382;48.086;11.632;2022-09-13T14:39:24;0.88;;;0.70;;
22429;SDS011;11382;48.086;11.632;2022-09-13T14:41:59;3.42;;;0.70;;
22429;SDS011;11382;48.086;11.632;2022-09-13T14:44:28;1.95;;;0.75;;
22429;SDS011;11382;48.086;11.632;2022-09-13T14:47:01;0.75;;;0.70;;
22429;SDS011;11382;48.086;11.632;2022-09-13T14:49:35;3.42;;;0.70;;
22429;SDS011;11382;48.086;11.632;2022-09-13T14:52:14;1.83;;;1.00;;
22429;SDS011;11382;48.086;11.632;2022-09-13T14:54:51;2.08;;;0.73;;
22429;SDS011;11382;48.086;11.632;2022-09-13T14:59:54;1.20;;;0.77;;
22429;SDS011;11382;48.086;11.632;2022-09-13T15:02:28;0.98;;;0.80;;
22429;SDS011;11382;48.086;11.632;2022-09-13T15:04:58;3.40;;;0.95;;
22429;SDS011;11382;48.086;11.632;2022-09-13T15:07:28;1.25;;;0.80;;
22429;SDS011;11382;48.086;11.632;2022-09-13T15:10:05;1.15;;;0.80;;
22429;SDS011;11382;48.086;11.632;2022-09-13T15:12:36;1.35;;;0.88;;
22429;SDS011;11382;48.086;11.632;2022-09-13T15:15:20;2.40;;;0.90;;
22429;SDS011;11382;48.086;11.632;2022-09-13T15:17:52;3.92;;;0.95;;
22429;SDS011;11382;48.086;11.632;2022-09-13T15:20:21;3.47;;;1.00;;
22429;SDS011;11382;48.086;11.632;2022-09-13T15:22:50;2.28;;;0.80;;
22429;SDS011;11382;48.086;11.632;2022-09-13T15:25:21;3.42;;;0.90;;
22429;SDS011;11382;48.086;11.632;2022-09-13T15:27:52;1.50;;;0.77;;
22429;SDS011;11382;48.086;11.632;2022-09-13T15:30:22;4.18;;;0.80;;
22429;SDS011;11382;48.086;11.632;2022-09-13T15:33:03;1.63;;;1.00;;
22429;SDS011;11382;48.086;11.632;2022-09-13T15:35:44;2.88;;;0.80;;
22429;SDS011;11382;48.086;11.632;2022-09-13T15:38:14;2.05;;;1.08;;
22429;SDS011;11382;48.086;11.632;2022-09-13T15:40:56;2.40;;;1.10;;
22429;SDS011;11382;48.086;11.632;2022-09-13T15:43:25;2.10;;;1.00;;